sensor_id;sensor_type;location;lat;lon;timestamp;temperature;humidity
20714;DHT22;10518;50.742;4.226;2024-03-25T00:02:13;4.20;99.90
20714;DHT22;10518;50.742;4.226;2024-03-25T00:04:38;4.10;99.90
20714;DHT22;10518;50.742;4.226;2024-03-25T00:07:04;4.10;99.90
20714;DHT22;10518;50.742;4.226;2024-03-25T00:09:30;4.10;99.90
20714;DHT22;10518;50.742;4.226;2024-03-25T00:11:55;4.10;99.90
20714;DHT22;10518;50.742;4.226;2024-03-25T00:14:21;4.20;99.90
20714;DHT22;10518;50.742;4.226;2024-03-25T00:16:47;4.10;99.90
20714;DHT22;10518;50.742;4.226;2024-03-25T00:19:13;4.10;99.90
20714;DHT22;10518;50.742;4.226;2024-03-25T00:21:38;4.00;99.90
20714;DHT22;10518;50.742;4.226;2024-03-25T00:24:04;4.00;99.90
20714;DHT22;10518;50.742;4.226;2024-03-25T00:26:30;4.10;99.90
20714;DHT22;10518;50.742;4.226;2024-03-25T00:28:55;4.10;99.90
20714;DHT22;10518;50.742;4.226;2024-03-25T00:31:21;4.20;99.90
20714;DHT22;10518;50.742;4.226;2024-03-25T00:33:46;4.10;99.90
20714;DHT22;10518;50.742;4.226;2024-03-25T00:36:12;4.00;99.90
20714;DHT22;10518;50.742;4.226;2024-03-25T00:38:38;4.10;99.90
20714;DHT22;10518;50.742;4.226;2024-03-25T00:41:04;4.00;99.90
20714;DHT22;10518;50.742;4.226;2024-03-25T00:43:29;4.00;99.90
20714;DHT22;10518;50.742;4.226;2024-03-25T00:45:55;4.00;99.90
20714;DHT22;10518;50.742;4.226;2024-03-25T00:48:22;4.10;99.90
20714;DHT22;10518;50.742;4.226;2024-03-25T00:50:48;4.00;99.90
20714;DHT22;10518;50.742;4.226;2024-03-25T00:53:14;4.00;99.90
20714;DHT22;10518;50.742;4.226;2024-03-25T00:55:40;3.90;99.90
20714;DHT22;10518;50.742;4.226;2024-03-25T00:58:05;3.90;99.90
20714;DHT22;10518;50.742;4.226;2024-03-25T01:00:31;4.00;99.90
20714;DHT22;10518;50.742;4.226;2024-03-25T01:02:57;3.90;99.90
20714;DHT22;10518;50.742;4.226;2024-03-25T01:05:23;4.00;99.90
20714;DHT22;10518;50.742;4.226;2024-03-25T01:07:48;3.90;99.90
20714;DHT22;10518;50.742;4.226;2024-03-25T01:10:15;3.80;99.90
20714;DHT22;10518;50.742;4.226;2024-03-25T01:12:41;3.80;99.90
20714;DHT22;10518;50.742;4.226;2024-03-25T01:15:07;3.80;99.90
20714;DHT22;10518;50.742;4.226;2024-03-25T01:17:35;3.90;99.90
20714;DHT22;10518;50.742;4.226;2024-03-25T01:20:01;3.80;99.90
20714;DHT22;10518;50.742;4.226;2024-03-25T01:22:27;3.80;99.90
20714;DHT22;10518;50.742;4.226;2024-03-25T01:24:53;3.80;99.90
20714;DHT22;10518;50.742;4.226;2024-03-25T01:27:18;3.70;99.90
20714;DHT22;10518;50.742;4.226;2024-03-25T01:29:44;3.70;99.90
20714;DHT22;10518;50.742;4.226;2024-03-25T01:32:10;3.70;99.90
20714;DHT22;10518;50.742;4.226;2024-03-25T01:34:35;3.70;99.90
20714;DHT22;10518;50.742;4.226;2024-03-25T01:37:01;3.70;99.90
20714;DHT22;10518;50.742;4.226;2024-03-25T01:39:27;3.70;99.90
20714;DHT22;10518;50.742;4.226;2024-03-25T01:41:52;3.80;99.90
20714;DHT22;10518;50.742;4.226;2024-03-25T01:44:18;3.70;99.90
20714;DHT22;10518;50.742;4.226;2024-03-25T01:46:44;3.70;99.90
20714;DHT22;10518;50.742;4.226;2024-03-25T01:49:10;3.60;99.90
20714;DHT22;10518;50.742;4.226;2024-03-25T01:51:36;3.70;99.90
20714;DHT22;10518;50.742;4.226;2024-03-25T01:54:03;3.70;99.90
20714;DHT22;10518;50.742;4.226;2024-03-25T01:56:31;3.60;99.90
20714;DHT22;10518;50.742;4.226;2024-03-25T01:58:59;3.70;99.90
20714;DHT22;10518;50.742;4.226;2024-03-25T02:01:25;3.60;99.90
20714;DHT22;10518;50.742;4.226;2024-03-25T02:03:50;3.60;99.90
20714;DHT22;10518;50.742;4.226;2024-03-25T02:06:17;3.60;99.90
20714;DHT22;10518;50.742;4.226;2024-03-25T02:08:44;3.60;99.90
20714;DHT22;10518;50.742;4.226;2024-03-25T02:11:10;3.60;99.90
20714;DHT22;10518;50.742;4.226;2024-03-25T02:13:37;3.60;99.90
20714;DHT22;10518;50.742;4.226;2024-03-25T02:16:04;3.60;99.90
20714;DHT22;10518;50.742;4.226;2024-03-25T02:18:29;3.70;99.90
20714;DHT22;10518;50.742;4.226;2024-03-25T02:20:56;3.70;99.90
20714;DHT22;10518;50.742;4.226;2024-03-25T02:23:22;3.90;99.90
20714;DHT22;10518;50.742;4.226;2024-03-25T02:25:51;3.80;99.90
20714;DHT22;10518;50.742;4.226;2024-03-25T02:28:18;3.90;99.90
20714;DHT22;10518;50.742;4.226;2024-03-25T02:30:44;4.10;99.90
20714;DHT22;10518;50.742;4.226;2024-03-25T02:33:09;4.20;99.90
20714;DHT22;10518;50.742;4.226;2024-03-25T02:35:36;4.20;99.90
20714;DHT22;10518;50.742;4.226;2024-03-25T02:38:04;4.20;99.90
20714;DHT22;10518;50.742;4.226;2024-03-25T02:40:30;4.30;99.90
20714;DHT22;10518;50.742;4.226;2024-03-25T02:42:56;4.40;99.90
20714;DHT22;10518;50.742;4.226;2024-03-25T02:45:22;4.70;99.90
20714;DHT22;10518;50.742;4.226;2024-03-25T02:47:48;4.60;99.90
20714;DHT22;10518;50.742;4.226;2024-03-25T02:50:14;4.70;99.90
20714;DHT22;10518;50.742;4.226;2024-03-25T02:52:40;4.80;99.90
20714;DHT22;10518;50.742;4.226;2024-03-25T02:55:06;5.00;99.90
20714;DHT22;10518;50.742;4.226;2024-03-25T02:57:31;5.00;99.90
20714;DHT22;10518;50.742;4.226;2024-03-25T02:59:57;5.10;99.90
20714;DHT22;10518;50.742;4.226;2024-03-25T03:02:22;5.20;99.90
20714;DHT22;10518;50.742;4.226;2024-03-25T03:04:48;5.30;99.90
20714;DHT22;10518;50.742;4.226;2024-03-25T03:07:14;5.40;99.90
20714;DHT22;10518;50.742;4.226;2024-03-25T03:09:39;5.40;99.90
20714;DHT22;10518;50.742;4.226;2024-03-25T03:12:05;5.50;99.90
20714;DHT22;10518;50.742;4.226;2024-03-25T03:14:31;5.60;99.90
20714;DHT22;10518;50.742;4.226;2024-03-25T03:16:56;5.60;99.90
20714;DHT22;10518;50.742;4.226;2024-03-25T03:19:26;5.60;99.90
20714;DHT22;10518;50.742;4.226;2024-03-25T03:21:53;5.70;99.90
20714;DHT22;10518;50.742;4.226;2024-03-25T03:24:18;5.80;99.90
20714;DHT22;10518;50.742;4.226;2024-03-25T03:26:44;5.80;99.90
20714;DHT22;10518;50.742;4.226;2024-03-25T03:29:10;5.90;99.90
20714;DHT22;10518;50.742;4.226;2024-03-25T03:31:36;5.90;99.90
20714;DHT22;10518;50.742;4.226;2024-03-25T03:34:02;5.90;99.90
20714;DHT22;10518;50.742;4.226;2024-03-25T03:36:27;5.90;99.90
20714;DHT22;10518;50.742;4.226;2024-03-25T03:38:53;5.90;99.90
20714;DHT22;10518;50.742;4.226;2024-03-25T03:41:19;5.80;99.90
20714;DHT22;10518;50.742;4.226;2024-03-25T03:43:45;5.90;99.90
20714;DHT22;10518;50.742;4.226;2024-03-25T03:46:11;5.80;99.90
20714;DHT22;10518;50.742;4.226;2024-03-25T03:48:37;5.90;99.90
20714;DHT22;10518;50.742;4.226;2024-03-25T03:51:04;5.80;99.90
20714;DHT22;10518;50.742;4.226;2024-03-25T03:53:30;5.70;99.90
20714;DHT22;10518;50.742;4.226;2024-03-25T03:55:57;5.80;99.90
20714;DHT22;10518;50.742;4.226;2024-03-25T03:58:23;5.80;99.90
20714;DHT22;10518;50.742;4.226;2024-03-25T04:00:49;5.80;99.90
20714;DHT22;10518;50.742;4.226;2024-03-25T04:03:15;5.70;99.90
20714;DHT22;10518;50.742;4.226;2024-03-25T04:05:41;5.90;99.90
20714;DHT22;10518;50.742;4.226;2024-03-25T04:08:07;5.70;99.90
20714;DHT22;10518;50.742;4.226;2024-03-25T04:10:34;5.70;99.90
20714;DHT22;10518;50.742;4.226;2024-03-25T04:13:00;5.70;99.90
20714;DHT22;10518;50.742;4.226;2024-03-25T04:15:26;5.70;99.90
20714;DHT22;10518;50.742;4.226;2024-03-25T04:17:52;5.60;99.90
20714;DHT22;10518;50.742;4.226;2024-03-25T04:20:18;5.60;99.90
20714;DHT22;10518;50.742;4.226;2024-03-25T04:22:45;5.60;99.90
20714;DHT22;10518;50.742;4.226;2024-03-25T04:25:11;5.50;99.90
20714;DHT22;10518;50.742;4.226;2024-03-25T04:27:41;5.50;99.90
20714;DHT22;10518;50.742;4.226;2024-03-25T04:30:07;5.50;99.90
20714;DHT22;10518;50.742;4.226;2024-03-25T04:32:34;5.40;99.90
20714;DHT22;10518;50.742;4.226;2024-03-25T04:35:00;5.40;99.90
20714;DHT22;10518;50.742;4.226;2024-03-25T04:37:26;5.40;99.90
20714;DHT22;10518;50.742;4.226;2024-03-25T04:39:53;5.30;99.90
20714;DHT22;10518;50.742;4.226;2024-03-25T04:42:19;5.20;99.90
20714;DHT22;10518;50.742;4.226;2024-03-25T04:44:45;5.20;99.90
20714;DHT22;10518;50.742;4.226;2024-03-25T04:47:11;5.10;99.90
20714;DHT22;10518;50.742;4.226;2024-03-25T04:49:36;5.10;99.90
20714;DHT22;10518;50.742;4.226;2024-03-25T04:52:03;5.10;99.90
20714;DHT22;10518;50.742;4.226;2024-03-25T04:54:29;5.10;99.90
20714;DHT22;10518;50.742;4.226;2024-03-25T04:56:55;5.10;99.90
20714;DHT22;10518;50.742;4.226;2024-03-25T04:59:21;5.20;99.90
20714;DHT22;10518;50.742;4.226;2024-03-25T05:01:46;5.00;99.90
20714;DHT22;10518;50.742;4.226;2024-03-25T05:04:12;5.00;99.90
20714;DHT22;10518;50.742;4.226;2024-03-25T05:06:37;5.00;99.90
20714;DHT22;10518;50.742;4.226;2024-03-25T05:09:03;5.00;99.90
20714;DHT22;10518;50.742;4.226;2024-03-25T05:11:29;5.00;99.90
20714;DHT22;10518;50.742;4.226;2024-03-25T05:13:54;5.00;99.90
20714;DHT22;10518;50.742;4.226;2024-03-25T05:16:20;5.00;99.90
20714;DHT22;10518;50.742;4.226;2024-03-25T05:18:45;5.00;99.90
20714;DHT22;10518;50.742;4.226;2024-03-25T05:21:11;5.20;99.90
20714;DHT22;10518;50.742;4.226;2024-03-25T05:23:36;5.00;99.90
20714;DHT22;10518;50.742;4.226;2024-03-25T05:26:02;4.90;99.90
20714;DHT22;10518;50.742;4.226;2024-03-25T05:28:28;4.90;99.90
20714;DHT22;10518;50.742;4.226;2024-03-25T05:30:53;4.90;99.90
20714;DHT22;10518;50.742;4.226;2024-03-25T05:33:19;4.90;99.90
20714;DHT22;10518;50.742;4.226;2024-03-25T05:35:45;5.00;99.90
20714;DHT22;10518;50.742;4.226;2024-03-25T05:38:10;5.10;99.90
20714;DHT22;10518;50.742;4.226;2024-03-25T05:40:36;5.10;99.90
20714;DHT22;10518;50.742;4.226;2024-03-25T05:43:02;5.10;99.90
20714;DHT22;10518;50.742;4.226;2024-03-25T05:45:28;5.20;99.90
20714;DHT22;10518;50.742;4.226;2024-03-25T05:47:53;5.20;99.90
20714;DHT22;10518;50.742;4.226;2024-03-25T05:50:19;5.50;99.90
20714;DHT22;10518;50.742;4.226;2024-03-25T05:52:44;5.40;99.90
20714;DHT22;10518;50.742;4.226;2024-03-25T05:55:10;5.30;99.90
20714;DHT22;10518;50.742;4.226;2024-03-25T05:57:36;5.40;99.90
20714;DHT22;10518;50.742;4.226;2024-03-25T06:00:03;5.50;99.90
20714;DHT22;10518;50.742;4.226;2024-03-25T06:02:28;5.50;99.90
20714;DHT22;10518;50.742;4.226;2024-03-25T06:04:55;5.70;99.90
20714;DHT22;10518;50.742;4.226;2024-03-25T06:07:22;6.00;99.90
20714;DHT22;10518;50.742;4.226;2024-03-25T06:09:48;6.20;99.90
20714;DHT22;10518;50.742;4.226;2024-03-25T06:12:14;6.50;99.90
20714;DHT22;10518;50.742;4.226;2024-03-25T06:14:39;6.70;99.90
20714;DHT22;10518;50.742;4.226;2024-03-25T06:17:05;6.90;99.90
20714;DHT22;10518;50.742;4.226;2024-03-25T06:19:31;6.80;99.90
20714;DHT22;10518;50.742;4.226;2024-03-25T06:21:57;6.90;99.90
20714;DHT22;10518;50.742;4.226;2024-03-25T06:24:22;6.90;99.90
20714;DHT22;10518;50.742;4.226;2024-03-25T06:26:49;7.00;99.90
20714;DHT22;10518;50.742;4.226;2024-03-25T06:29:14;7.00;99.90
20714;DHT22;10518;50.742;4.226;2024-03-25T06:31:40;7.10;99.90
20714;DHT22;10518;50.742;4.226;2024-03-25T06:34:24;7.30;99.90
20714;DHT22;10518;50.742;4.226;2024-03-25T06:36:51;7.30;99.90
20714;DHT22;10518;50.742;4.226;2024-03-25T06:39:16;7.40;99.90
20714;DHT22;10518;50.742;4.226;2024-03-25T06:41:42;7.50;99.90
20714;DHT22;10518;50.742;4.226;2024-03-25T06:44:08;7.70;99.90
20714;DHT22;10518;50.742;4.226;2024-03-25T06:46:33;7.70;99.90
20714;DHT22;10518;50.742;4.226;2024-03-25T06:48:59;7.70;99.90
20714;DHT22;10518;50.742;4.226;2024-03-25T06:51:25;7.80;99.90
20714;DHT22;10518;50.742;4.226;2024-03-25T06:53:50;7.90;99.90
20714;DHT22;10518;50.742;4.226;2024-03-25T06:56:16;8.00;99.90
20714;DHT22;10518;50.742;4.226;2024-03-25T06:58:42;8.00;99.90
20714;DHT22;10518;50.742;4.226;2024-03-25T07:01:09;8.00;99.90
20714;DHT22;10518;50.742;4.226;2024-03-25T07:03:35;8.00;99.90
20714;DHT22;10518;50.742;4.226;2024-03-25T07:06:01;8.10;99.90
20714;DHT22;10518;50.742;4.226;2024-03-25T07:08:27;8.10;99.90
20714;DHT22;10518;50.742;4.226;2024-03-25T07:10:54;8.10;99.90
20714;DHT22;10518;50.742;4.226;2024-03-25T07:13:20;8.20;99.90
20714;DHT22;10518;50.742;4.226;2024-03-25T07:15:46;8.20;99.90
20714;DHT22;10518;50.742;4.226;2024-03-25T07:18:12;8.30;99.90
20714;DHT22;10518;50.742;4.226;2024-03-25T07:20:39;8.40;99.90
20714;DHT22;10518;50.742;4.226;2024-03-25T07:23:05;8.40;99.90
20714;DHT22;10518;50.742;4.226;2024-03-25T07:25:32;8.40;99.90
20714;DHT22;10518;50.742;4.226;2024-03-25T07:27:58;8.50;99.90
20714;DHT22;10518;50.742;4.226;2024-03-25T07:30:24;8.70;99.90
20714;DHT22;10518;50.742;4.226;2024-03-25T07:32:51;8.80;99.90
20714;DHT22;10518;50.742;4.226;2024-03-25T07:35:16;8.90;99.90
20714;DHT22;10518;50.742;4.226;2024-03-25T07:37:43;9.00;99.90
20714;DHT22;10518;50.742;4.226;2024-03-25T07:40:09;9.30;99.90
20714;DHT22;10518;50.742;4.226;2024-03-25T07:42:35;9.30;99.90
20714;DHT22;10518;50.742;4.226;2024-03-25T07:45:01;9.40;99.90
20714;DHT22;10518;50.742;4.226;2024-03-25T07:47:27;9.40;99.90
20714;DHT22;10518;50.742;4.226;2024-03-25T07:49:52;9.60;99.90
20714;DHT22;10518;50.742;4.226;2024-03-25T07:52:18;9.80;99.90
20714;DHT22;10518;50.742;4.226;2024-03-25T07:54:44;10.00;99.90
20714;DHT22;10518;50.742;4.226;2024-03-25T07:57:09;10.30;99.90
20714;DHT22;10518;50.742;4.226;2024-03-25T07:59:35;10.50;99.90
20714;DHT22;10518;50.742;4.226;2024-03-25T08:02:00;10.70;99.90
20714;DHT22;10518;50.742;4.226;2024-03-25T08:04:26;10.80;99.90
20714;DHT22;10518;50.742;4.226;2024-03-25T08:06:52;11.00;99.90
20714;DHT22;10518;50.742;4.226;2024-03-25T08:09:17;11.30;99.90
20714;DHT22;10518;50.742;4.226;2024-03-25T08:11:43;11.30;99.90
20714;DHT22;10518;50.742;4.226;2024-03-25T08:14:11;11.40;99.90
20714;DHT22;10518;50.742;4.226;2024-03-25T08:16:37;11.50;99.90
20714;DHT22;10518;50.742;4.226;2024-03-25T08:19:03;11.70;99.90
20714;DHT22;10518;50.742;4.226;2024-03-25T08:21:29;11.80;99.90
20714;DHT22;10518;50.742;4.226;2024-03-25T08:23:55;11.90;99.90
20714;DHT22;10518;50.742;4.226;2024-03-25T08:26:20;11.90;99.90
20714;DHT22;10518;50.742;4.226;2024-03-25T08:28:46;11.80;99.90
20714;DHT22;10518;50.742;4.226;2024-03-25T08:31:14;11.90;99.90
20714;DHT22;10518;50.742;4.226;2024-03-25T08:33:39;12.00;99.90
20714;DHT22;10518;50.742;4.226;2024-03-25T08:36:05;11.90;99.90
20714;DHT22;10518;50.742;4.226;2024-03-25T08:38:31;11.90;99.90
20714;DHT22;10518;50.742;4.226;2024-03-25T08:40:56;12.10;99.90
20714;DHT22;10518;50.742;4.226;2024-03-25T08:43:22;12.20;99.90
20714;DHT22;10518;50.742;4.226;2024-03-25T08:45:48;12.30;99.90
20714;DHT22;10518;50.742;4.226;2024-03-25T08:48:13;12.50;99.90
20714;DHT22;10518;50.742;4.226;2024-03-25T08:50:39;12.60;99.90
20714;DHT22;10518;50.742;4.226;2024-03-25T08:53:04;12.80;99.90
20714;DHT22;10518;50.742;4.226;2024-03-25T08:55:30;13.00;99.90
20714;DHT22;10518;50.742;4.226;2024-03-25T08:57:57;13.20;99.90
20714;DHT22;10518;50.742;4.226;2024-03-25T09:00:28;13.20;99.90
20714;DHT22;10518;50.742;4.226;2024-03-25T09:02:54;13.30;99.90
20714;DHT22;10518;50.742;4.226;2024-03-25T09:05:21;13.40;99.90
20714;DHT22;10518;50.742;4.226;2024-03-25T09:07:49;13.40;99.90
20714;DHT22;10518;50.742;4.226;2024-03-25T09:10:20;13.30;99.90
20714;DHT22;10518;50.742;4.226;2024-03-25T09:13:04;13.30;99.90
20714;DHT22;10518;50.742;4.226;2024-03-25T09:15:30;13.40;99.90
20714;DHT22;10518;50.742;4.226;2024-03-25T09:17:55;13.60;99.90
20714;DHT22;10518;50.742;4.226;2024-03-25T09:20:21;13.70;99.90
20714;DHT22;10518;50.742;4.226;2024-03-25T09:22:47;13.70;99.90
20714;DHT22;10518;50.742;4.226;2024-03-25T09:25:14;13.80;99.90
20714;DHT22;10518;50.742;4.226;2024-03-25T09:27:40;13.50;99.90
20714;DHT22;10518;50.742;4.226;2024-03-25T09:30:06;13.50;99.90
20714;DHT22;10518;50.742;4.226;2024-03-25T09:32:34;13.60;99.90
20714;DHT22;10518;50.742;4.226;2024-03-25T09:35:00;13.70;99.90
20714;DHT22;10518;50.742;4.226;2024-03-25T09:37:26;13.90;99.90
20714;DHT22;10518;50.742;4.226;2024-03-25T09:39:52;14.10;99.90
20714;DHT22;10518;50.742;4.226;2024-03-25T09:42:56;14.40;99.90
20714;DHT22;10518;50.742;4.226;2024-03-25T09:45:24;14.60;99.90
20714;DHT22;10518;50.742;4.226;2024-03-25T09:47:53;14.50;99.90
20714;DHT22;10518;50.742;4.226;2024-03-25T09:50:20;14.70;99.90
20714;DHT22;10518;50.742;4.226;2024-03-25T09:52:49;14.80;99.90
20714;DHT22;10518;50.742;4.226;2024-03-25T09:55:15;14.90;99.90
20714;DHT22;10518;50.742;4.226;2024-03-25T09:57:44;14.70;99.90
20714;DHT22;10518;50.742;4.226;2024-03-25T10:00:10;14.60;99.90
20714;DHT22;10518;50.742;4.226;2024-03-25T10:02:38;14.40;99.90
20714;DHT22;10518;50.742;4.226;2024-03-25T10:05:05;14.50;99.90
20714;DHT22;10518;50.742;4.226;2024-03-25T10:07:30;14.50;99.90
20714;DHT22;10518;50.742;4.226;2024-03-25T10:09:56;14.60;99.90
20714;DHT22;10518;50.742;4.226;2024-03-25T10:12:24;14.70;99.90
20714;DHT22;10518;50.742;4.226;2024-03-25T10:14:49;14.80;99.90
20714;DHT22;10518;50.742;4.226;2024-03-25T10:17:15;15.00;99.90
20714;DHT22;10518;50.742;4.226;2024-03-25T10:19:41;15.00;99.90
20714;DHT22;10518;50.742;4.226;2024-03-25T10:22:08;15.20;99.90
20714;DHT22;10518;50.742;4.226;2024-03-25T10:24:44;15.40;99.90
20714;DHT22;10518;50.742;4.226;2024-03-25T10:27:21;15.50;99.90
20714;DHT22;10518;50.742;4.226;2024-03-25T10:29:56;15.70;99.90
20714;DHT22;10518;50.742;4.226;2024-03-25T10:32:21;15.90;99.90
20714;DHT22;10518;50.742;4.226;2024-03-25T10:34:50;16.00;99.90
20714;DHT22;10518;50.742;4.226;2024-03-25T10:37:16;15.90;99.90
20714;DHT22;10518;50.742;4.226;2024-03-25T10:39:50;15.70;99.90
20714;DHT22;10518;50.742;4.226;2024-03-25T10:42:20;15.60;99.90
20714;DHT22;10518;50.742;4.226;2024-03-25T10:44:47;15.50;99.90
20714;DHT22;10518;50.742;4.226;2024-03-25T10:47:19;15.50;99.90
20714;DHT22;10518;50.742;4.226;2024-03-25T10:49:58;15.60;99.90
20714;DHT22;10518;50.742;4.226;2024-03-25T10:52:27;15.60;99.90
20714;DHT22;10518;50.742;4.226;2024-03-25T10:54:55;15.70;99.90
20714;DHT22;10518;50.742;4.226;2024-03-25T10:57:22;15.90;99.90
20714;DHT22;10518;50.742;4.226;2024-03-25T10:59:49;16.00;99.90
20714;DHT22;10518;50.742;4.226;2024-03-25T11:02:15;15.80;99.90
20714;DHT22;10518;50.742;4.226;2024-03-25T11:04:44;15.70;99.90
20714;DHT22;10518;50.742;4.226;2024-03-25T11:07:14;15.70;99.90
20714;DHT22;10518;50.742;4.226;2024-03-25T11:09:41;15.80;99.90
20714;DHT22;10518;50.742;4.226;2024-03-25T11:12:10;15.90;99.90
20714;DHT22;10518;50.742;4.226;2024-03-25T11:14:36;15.80;99.90
20714;DHT22;10518;50.742;4.226;2024-03-25T11:17:02;15.70;99.90
20714;DHT22;10518;50.742;4.226;2024-03-25T11:19:29;15.70;99.90
20714;DHT22;10518;50.742;4.226;2024-03-25T11:22:09;15.70;99.90
20714;DHT22;10518;50.742;4.226;2024-03-25T11:24:35;15.70;99.90
20714;DHT22;10518;50.742;4.226;2024-03-25T11:27:07;15.70;99.90
20714;DHT22;10518;50.742;4.226;2024-03-25T11:29:34;15.90;99.90
20714;DHT22;10518;50.742;4.226;2024-03-25T11:32:06;16.20;99.90
20714;DHT22;10518;50.742;4.226;2024-03-25T11:34:33;16.10;99.90
20714;DHT22;10518;50.742;4.226;2024-03-25T11:37:00;16.30;99.90
20714;DHT22;10518;50.742;4.226;2024-03-25T11:39:25;16.30;99.90
20714;DHT22;10518;50.742;4.226;2024-03-25T11:41:52;16.10;99.90
20714;DHT22;10518;50.742;4.226;2024-03-25T11:44:18;15.40;99.90
20714;DHT22;10518;50.742;4.226;2024-03-25T11:46:43;15.10;99.90
20714;DHT22;10518;50.742;4.226;2024-03-25T11:49:13;14.90;99.90
20714;DHT22;10518;50.742;4.226;2024-03-25T11:51:40;15.00;99.90
20714;DHT22;10518;50.742;4.226;2024-03-25T11:54:07;14.90;99.90
20714;DHT22;10518;50.742;4.226;2024-03-25T11:56:33;14.80;99.90
20714;DHT22;10518;50.742;4.226;2024-03-25T11:59:02;15.00;99.90
20714;DHT22;10518;50.742;4.226;2024-03-25T12:01:31;15.10;99.90
20714;DHT22;10518;50.742;4.226;2024-03-25T12:03:56;15.50;99.90
20714;DHT22;10518;50.742;4.226;2024-03-25T12:06:22;15.70;99.90
20714;DHT22;10518;50.742;4.226;2024-03-25T12:08:48;16.00;99.90
20714;DHT22;10518;50.742;4.226;2024-03-25T12:11:32;16.00;99.90
20714;DHT22;10518;50.742;4.226;2024-03-25T12:13:58;16.10;99.90
20714;DHT22;10518;50.742;4.226;2024-03-25T12:16:24;16.00;99.90
20714;DHT22;10518;50.742;4.226;2024-03-25T12:18:50;15.90;99.90
20714;DHT22;10518;50.742;4.226;2024-03-25T12:21:17;15.80;99.90
20714;DHT22;10518;50.742;4.226;2024-03-25T12:23:43;15.70;99.90
20714;DHT22;10518;50.742;4.226;2024-03-25T12:26:09;15.70;99.90
20714;DHT22;10518;50.742;4.226;2024-03-25T12:28:35;15.70;99.90
20714;DHT22;10518;50.742;4.226;2024-03-25T12:31:06;15.80;99.90
20714;DHT22;10518;50.742;4.226;2024-03-25T12:33:43;15.80;99.90
20714;DHT22;10518;50.742;4.226;2024-03-25T12:36:11;15.70;99.90
20714;DHT22;10518;50.742;4.226;2024-03-25T12:38:36;15.60;99.90
20714;DHT22;10518;50.742;4.226;2024-03-25T12:41:12;15.60;99.90
20714;DHT22;10518;50.742;4.226;2024-03-25T12:43:44;15.40;99.90
20714;DHT22;10518;50.742;4.226;2024-03-25T12:46:11;15.30;99.90
20714;DHT22;10518;50.742;4.226;2024-03-25T12:48:37;15.20;99.90
20714;DHT22;10518;50.742;4.226;2024-03-25T12:51:03;15.10;99.90
20714;DHT22;10518;50.742;4.226;2024-03-25T12:53:30;15.30;99.90
20714;DHT22;10518;50.742;4.226;2024-03-25T12:55:55;15.30;99.90
20714;DHT22;10518;50.742;4.226;2024-03-25T12:58:21;15.40;99.90
20714;DHT22;10518;50.742;4.226;2024-03-25T13:00:47;15.50;99.90
20714;DHT22;10518;50.742;4.226;2024-03-25T13:03:13;15.50;99.90
20714;DHT22;10518;50.742;4.226;2024-03-25T13:05:39;15.40;99.90
20714;DHT22;10518;50.742;4.226;2024-03-25T13:08:05;15.30;99.90
20714;DHT22;10518;50.742;4.226;2024-03-25T13:10:31;15.30;99.90
20714;DHT22;10518;50.742;4.226;2024-03-25T13:12:57;15.20;99.90
20714;DHT22;10518;50.742;4.226;2024-03-25T13:15:23;15.20;99.90
20714;DHT22;10518;50.742;4.226;2024-03-25T13:17:48;15.30;99.90
20714;DHT22;10518;50.742;4.226;2024-03-25T13:20:14;15.50;99.90
20714;DHT22;10518;50.742;4.226;2024-03-25T13:22:40;15.40;99.90
20714;DHT22;10518;50.742;4.226;2024-03-25T13:25:06;15.30;99.90
20714;DHT22;10518;50.742;4.226;2024-03-25T13:27:32;15.30;99.90
20714;DHT22;10518;50.742;4.226;2024-03-25T13:29:58;15.40;99.90
20714;DHT22;10518;50.742;4.226;2024-03-25T13:32:25;15.40;99.90
20714;DHT22;10518;50.742;4.226;2024-03-25T13:34:51;15.30;99.90
20714;DHT22;10518;50.742;4.226;2024-03-25T13:37:17;15.20;99.90
20714;DHT22;10518;50.742;4.226;2024-03-25T13:39:42;15.20;99.90
20714;DHT22;10518;50.742;4.226;2024-03-25T13:42:08;15.10;99.90
20714;DHT22;10518;50.742;4.226;2024-03-25T13:44:34;15.10;99.90
20714;DHT22;10518;50.742;4.226;2024-03-25T13:46:59;15.10;99.90
20714;DHT22;10518;50.742;4.226;2024-03-25T13:49:25;15.10;99.90
20714;DHT22;10518;50.742;4.226;2024-03-25T13:51:56;15.10;99.90
20714;DHT22;10518;50.742;4.226;2024-03-25T13:54:22;15.20;99.90
20714;DHT22;10518;50.742;4.226;2024-03-25T13:56:47;15.20;99.90
20714;DHT22;10518;50.742;4.226;2024-03-25T13:59:13;15.30;99.90
20714;DHT22;10518;50.742;4.226;2024-03-25T14:01:39;15.50;99.90
20714;DHT22;10518;50.742;4.226;2024-03-25T14:04:05;15.50;99.90
20714;DHT22;10518;50.742;4.226;2024-03-25T14:06:32;15.40;99.90
20714;DHT22;10518;50.742;4.226;2024-03-25T14:08:58;15.60;99.90
20714;DHT22;10518;50.742;4.226;2024-03-25T14:11:24;15.60;99.90
20714;DHT22;10518;50.742;4.226;2024-03-25T14:13:50;15.60;99.90
20714;DHT22;10518;50.742;4.226;2024-03-25T14:16:15;15.50;99.90
20714;DHT22;10518;50.742;4.226;2024-03-25T14:18:41;15.50;99.90
20714;DHT22;10518;50.742;4.226;2024-03-25T14:21:07;15.50;99.90
20714;DHT22;10518;50.742;4.226;2024-03-25T14:23:32;15.40;99.90
20714;DHT22;10518;50.742;4.226;2024-03-25T14:25:58;15.50;99.90
20714;DHT22;10518;50.742;4.226;2024-03-25T14:28:24;15.50;99.90
20714;DHT22;10518;50.742;4.226;2024-03-25T14:30:49;15.50;99.90
20714;DHT22;10518;50.742;4.226;2024-03-25T14:33:15;15.40;99.90
20714;DHT22;10518;50.742;4.226;2024-03-25T14:35:41;15.30;99.90
20714;DHT22;10518;50.742;4.226;2024-03-25T14:38:07;15.30;99.90
20714;DHT22;10518;50.742;4.226;2024-03-25T14:40:40;15.30;99.90
20714;DHT22;10518;50.742;4.226;2024-03-25T14:43:06;15.20;99.90
20714;DHT22;10518;50.742;4.226;2024-03-25T14:45:32;15.00;99.90
20714;DHT22;10518;50.742;4.226;2024-03-25T14:47:57;14.90;99.90
20714;DHT22;10518;50.742;4.226;2024-03-25T14:50:23;15.00;99.90
20714;DHT22;10518;50.742;4.226;2024-03-25T14:52:49;15.00;99.90
20714;DHT22;10518;50.742;4.226;2024-03-25T14:55:14;15.10;99.90
20714;DHT22;10518;50.742;4.226;2024-03-25T14:57:40;15.00;99.90
20714;DHT22;10518;50.742;4.226;2024-03-25T15:00:06;15.00;99.90
20714;DHT22;10518;50.742;4.226;2024-03-25T15:02:32;15.00;99.90
20714;DHT22;10518;50.742;4.226;2024-03-25T15:04:57;15.10;99.90
20714;DHT22;10518;50.742;4.226;2024-03-25T15:07:23;14.90;99.90
20714;DHT22;10518;50.742;4.226;2024-03-25T15:09:49;14.90;99.90
20714;DHT22;10518;50.742;4.226;2024-03-25T15:12:14;14.90;99.90
20714;DHT22;10518;50.742;4.226;2024-03-25T15:14:40;14.80;99.90
20714;DHT22;10518;50.742;4.226;2024-03-25T15:17:05;14.80;99.90
20714;DHT22;10518;50.742;4.226;2024-03-25T15:19:33;14.70;99.90
20714;DHT22;10518;50.742;4.226;2024-03-25T15:21:58;14.30;99.90
20714;DHT22;10518;50.742;4.226;2024-03-25T15:24:24;14.10;99.90
20714;DHT22;10518;50.742;4.226;2024-03-25T15:26:49;14.00;99.90
20714;DHT22;10518;50.742;4.226;2024-03-25T15:29:15;14.00;99.90
20714;DHT22;10518;50.742;4.226;2024-03-25T15:31:40;14.20;99.90
20714;DHT22;10518;50.742;4.226;2024-03-25T15:34:06;14.30;99.90